Time,TemperatureF,DewpointF,PressureIn,WindDirection,WindDirectionDegrees,WindSpeedMPH,WindSpeedGustMPH,Humidity,HourlyPrecipIn,Conditions,Clouds,dailyrainin,SolarRadiationWatts/m^2,SoftwareType,DateUTC
2013-07-08 00:03:00,73.8,73.0,29.91,South,174,0.0,3.0,96,0.00,,,0.00,0,weatherlink.com 1.10,2013-07-08 04:03:00,
2013-07-08 00:18:00,73.7,73.0,29.91,South,173,0.0,3.0,97,0.00,,,0.00,0,weatherlink.com 1.10,2013-07-08 04:18:00,
2013-07-08 00:33:00,73.6,73.0,29.91,South,178,1.0,5.0,97,0.00,,,0.00,0,weatherlink.com 1.10,2013-07-08 04:33:00,
2013-07-08 00:48:00,73.5,73.0,29.90,SSE,166,0.0,5.0,97,0.00,,,0.00,0,weatherlink.com 1.10,2013-07-08 04:48:00,
2013-07-08 01:03:00,73.5,73.0,29.89,SSE,160,0.0,3.0,97,0.00,,,0.00,0,weatherlink.com 1.10,2013-07-08 05:03:00,
2013-07-08 01:18:00,73.5,73.0,29.89,South,184,0.0,3.0,97,0.00,,,0.00,0,weatherlink.com 1.10,2013-07-08 05:18:00,
2013-07-08 01:33:00,73.6,73.0,29.89,SSE,147,0.0,2.0,97,0.00,,,0.00,0,weatherlink.com 1.10,2013-07-08 05:33:00,
2013-07-08 01:48:00,73.5,73.0,29.89,South,189,0.0,4.0,97,0.00,,,0.00,0,weatherlink.com 1.10,2013-07-08 05:48:00,
2013-07-08 02:03:00,73.3,73.0,29.90,SSE,158,3.0,5.0,98,0.00,,,0.00,0,weatherlink.com 1.10,2013-07-08 06:03:00,
2013-07-08 02:18:00,73.2,73.0,29.90,South,176,0.0,5.0,98,0.00,,,0.00,0,weatherlink.com 1.10,2013-07-08 06:18:00,
2013-07-08 02:33:00,73.1,73.0,29.90,SSE,163,0.0,7.0,98,0.00,,,0.00,0,weatherlink.com 1.10,2013-07-08 06:33:00,
2013-07-08 02:48:00,73.1,73.0,29.90,South,191,2.0,4.0,98,0.00,,,0.00,0,weatherlink.com 1.10,2013-07-08 06:48:00,
2013-07-08 03:03:00,73.1,73.0,29.89,South,183,0.0,5.0,98,0.00,,,0.00,0,weatherlink.com 1.10,2013-07-08 07:03:00,
2013-07-08 03:18:00,73.1,73.0,29.90,South,171,0.0,3.0,98,0.00,,,0.00,0,weatherlink.com 1.10,2013-07-08 07:18:00,
2013-07-08 03:33:00,73.1,73.0,29.89,SSW,194,0.0,3.0,98,0.00,,,0.00,0,weatherlink.com 1.10,2013-07-08 07:33:00,
2013-07-08 03:48:00,73.2,73.0,29.90,South,181,0.0,3.0,98,0.00,,,0.00,0,weatherlink.com 1.10,2013-07-08 07:48:00,
2013-07-08 04:03:00,73.3,72.0,29.89,South,173,0.0,2.0,97,0.00,,,0.00,0,weatherlink.com 1.10,2013-07-08 08:03:00,
2013-07-08 04:18:00,73.3,72.0,29.90,SSW,195,0.0,3.0,97,0.00,,,0.00,0,weatherlink.com 1.10,2013-07-08 08:18:00,
2013-07-08 04:33:00,73.4,73.0,29.90,South,170,0.0,2.0,97,0.00,,,0.00,0,weatherlink.com 1.10,2013-07-08 08:33:00,
2013-07-08 04:48:00,73.3,72.0,29.89,South,179,0.0,2.0,97,0.00,,,0.00,0,weatherlink.com 1.10,2013-07-08 08:48:00,
2013-07-08 05:03:00,73.2,72.0,29.90,South,170,0.0,3.0,97,0.00,,,0.00,0,weatherlink.com 1.10,2013-07-08 09:03:00,
2013-07-08 05:18:00,73.0,72.0,29.89,SSW,210,0.0,3.0,97,0.00,,,0.00,0,weatherlink.com 1.10,2013-07-08 09:18:00,
2013-07-08 05:33:00,73.0,72.0,29.90,SSW,193,0.0,2.0,97,0.00,,,0.00,9,weatherlink.com 1.10,2013-07-08 09:33:00,
2013-07-08 05:48:00,73.0,72.0,29.90,South,183,0.0,5.0,97,0.00,,,0.00,18,weatherlink.com 1.10,2013-07-08 09:48:00,
2013-07-08 06:03:00,73.3,72.0,29.90,South,185,0.0,2.0,97,0.00,,,0.00,23,weatherlink.com 1.10,2013-07-08 10:03:00,
2013-07-08 06:18:00,73.6,73.0,29.90,SSE,164,0.0,3.0,97,0.00,,,0.00,23,weatherlink.com 1.10,2013-07-08 10:18:00,
2013-07-08 06:33:00,73.9,73.0,29.90,South,181,0.0,3.0,97,0.00,,,0.00,39,weatherlink.com 1.10,2013-07-08 10:33:00,
2013-07-08 06:48:00,74.3,73.0,29.90,SSE,167,0.0,6.0,97,0.00,,,0.00,39,weatherlink.com 1.10,2013-07-08 10:48:00,
2013-07-08 07:03:00,74.8,74.0,29.90,South,171,0.0,5.0,96,0.00,,,0.00,44,weatherlink.com 1.10,2013-07-08 11:03:00,
2013-07-08 07:18:00,75.6,74.0,29.90,SSE,162,3.0,6.0,94,0.00,,,0.00,49,weatherlink.com 1.10,2013-07-08 11:18:00,
2013-07-08 07:33:00,76.4,74.0,29.90,East,95,0.0,6.0,92,0.00,,,0.00,42,weatherlink.com 1.10,2013-07-08 11:33:00,
2013-07-08 07:49:00,76.9,74.0,29.91,SSE,162,0.0,6.0,89,0.00,,,0.00,44,weatherlink.com 1.10,2013-07-08 11:49:00,
2013-07-08 08:04:00,77.5,72.0,29.91,WNW,283,0.0,8.0,84,0.00,,,0.00,47,weatherlink.com 1.10,2013-07-08 12:04:00,
2013-07-08 08:19:00,78.6,73.0,29.91,NW,318,1.0,6.0,83,0.00,,,0.00,422,weatherlink.com 1.10,2013-07-08 12:19:00,
2013-07-08 08:34:00,79.8,73.0,29.91,SSW,210,1.0,5.0,80,0.00,,,0.00,473,weatherlink.com 1.10,2013-07-08 12:34:00,
2013-07-08 08:49:00,80.9,73.0,29.90,WNW,293,2.0,4.0,78,0.00,,,0.00,524,weatherlink.com 1.10,2013-07-08 12:49:00,
2013-07-08 09:04:00,81.6,73.0,29.90,South,191,1.0,8.0,75,0.00,,,0.00,566,weatherlink.com 1.10,2013-07-08 13:04:00,
2013-07-08 09:19:00,82.5,73.0,29.90,South,175,0.0,3.0,74,0.00,,,0.00,608,weatherlink.com 1.10,2013-07-08 13:19:00,
2013-07-08 09:34:00,82.9,74.0,29.91,SE,134,0.0,6.0,74,0.00,,,0.00,649,weatherlink.com 1.10,2013-07-08 13:34:00,
2013-07-08 09:49:00,83.2,74.0,29.91,SSE,150,0.0,6.0,73,0.00,,,0.00,686,weatherlink.com 1.10,2013-07-08 13:49:00,
2013-07-08 10:04:00,84.1,74.0,29.91,SSE,159,0.0,7.0,71,0.00,,,0.00,722,weatherlink.com 1.10,2013-07-08 14:04:00,
2013-07-08 10:19:00,85.0,73.0,29.91,WSW,252,0.0,9.0,67,0.00,,,0.00,759,weatherlink.com 1.10,2013-07-08 14:19:00,
2013-07-08 10:34:00,85.4,73.0,29.91,West,262,0.0,6.0,67,0.00,,,0.00,802,weatherlink.com 1.10,2013-07-08 14:34:00,
2013-07-08 10:49:00,86.3,74.0,29.91,East,93,1.0,6.0,66,0.00,,,0.00,798,weatherlink.com 1.10,2013-07-08 14:49:00,
2013-07-08 11:04:00,87.2,75.0,29.91,South,189,0.0,2.0,67,0.00,,,0.00,768,weatherlink.com 1.10,2013-07-08 15:04:00,
2013-07-08 11:19:00,85.8,75.0,29.91,SSW,195,2.0,8.0,69,0.00,,,0.00,821,weatherlink.com 1.10,2013-07-08 15:19:00,
2013-07-08 11:34:00,84.8,74.0,29.91,SSE,149,1.0,7.0,71,0.00,,,0.00,680,weatherlink.com 1.10,2013-07-08 15:34:00,
2013-07-08 11:50:00,85.1,76.0,29.91,WSW,257,0.0,7.0,74,0.00,,,0.00,940,weatherlink.com 1.10,2013-07-08 15:50:00,
2013-07-08 12:05:00,86.2,77.0,29.91,WSW,245,0.0,7.0,73,0.00,,,0.00,889,weatherlink.com 1.10,2013-07-08 16:05:00,
2013-07-08 12:20:00,87.3,75.0,29.91,North,353,1.0,4.0,66,0.00,,,0.00,939,weatherlink.com 1.10,2013-07-08 16:20:00,
2013-07-08 12:35:00,86.1,75.0,29.91,WSW,239,1.0,7.0,70,0.00,,,0.00,643,weatherlink.com 1.10,2013-07-08 16:35:00,
2013-07-08 12:50:00,85.8,76.0,29.91,South,182,2.0,6.0,73,0.00,,,0.00,930,weatherlink.com 1.10,2013-07-08 16:50:00,
2013-07-08 13:05:00,86.5,76.0,29.91,SE,146,1.0,8.0,71,0.00,,,0.00,998,weatherlink.com 1.10,2013-07-08 17:05:00,
2013-07-08 13:20:00,87.4,77.0,29.91,SSW,195,0.0,7.0,71,0.00,,,0.00,991,weatherlink.com 1.10,2013-07-08 17:20:00,
2013-07-08 13:35:00,87.5,77.0,29.91,South,191,1.0,8.0,70,0.00,,,0.00,299,weatherlink.com 1.10,2013-07-08 17:35:00,
2013-07-08 13:50:00,87.0,77.0,29.91,SSW,201,0.0,9.0,72,0.00,,,0.00,816,weatherlink.com 1.10,2013-07-08 17:50:00,
2013-07-08 14:05:00,86.6,77.0,29.91,SSE,168,0.0,8.0,74,0.00,,,0.00,536,weatherlink.com 1.10,2013-07-08 18:05:00,
2013-07-08 14:20:00,87.1,78.0,29.92,SSW,212,0.0,3.0,73,0.00,,,0.00,202,weatherlink.com 1.10,2013-07-08 18:20:00,
2013-07-08 14:35:00,85.6,76.0,29.92,SSE,166,0.0,4.0,74,0.00,,,0.00,387,weatherlink.com 1.10,2013-07-08 18:35:00,
2013-07-08 15:20:00,85.3,76.0,29.92,WNW,302,0.0,7.0,73,0.00,,,0.00,362,weatherlink.com 1.10,2013-07-08 19:20:00,
2013-07-08 15:50:00,86.7,78.0,29.92,NNW,333,1.0,7.0,74,0.00,,,0.00,733,weatherlink.com 1.10,2013-07-08 19:50:00,
2013-07-08 16:20:00,86.3,77.0,29.92,North,350,0.0,2.0,73,0.00,,,0.00,564,weatherlink.com 1.10,2013-07-08 20:20:00,
2013-07-08 16:35:00,85.5,76.0,29.92,NNW,330,0.0,2.0,74,0.00,,,0.00,617,weatherlink.com 1.10,2013-07-08 20:35:00,
2013-07-08 17:50:00,83.5,75.0,29.92,WNW,299,0.0,1.0,76,0.00,,,0.00,345,weatherlink.com 1.10,2013-07-08 21:50:00,
2013-07-08 18:05:00,83.5,75.0,29.92,WNW,299,0.0,1.0,76,0.00,,,0.00,65,weatherlink.com 1.10,2013-07-08 22:05:00,
2013-07-08 18:20:00,83.0,75.0,29.92,NW,316,0.0,3.0,77,0.00,,,0.00,58,weatherlink.com 1.10,2013-07-08 22:20:00,
2013-07-08 18:35:00,82.4,74.0,29.92,South,184,0.0,4.0,76,0.00,,,0.00,62,weatherlink.com 1.10,2013-07-08 22:35:00,
2013-07-08 18:50:00,81.8,74.0,29.93,ESE,115,0.0,3.0,77,0.00,,,0.00,49,weatherlink.com 1.10,2013-07-08 22:50:00,
2013-07-08 19:05:00,81.9,74.0,29.93,West,268,0.0,1.0,77,0.00,,,0.00,116,weatherlink.com 1.10,2013-07-08 23:05:00,
2013-07-08 19:20:00,82.4,74.0,29.93,SSW,192,0.0,2.0,75,0.00,,,0.00,67,weatherlink.com 1.10,2013-07-08 23:20:00,
2013-07-08 19:35:00,82.1,75.0,29.93,SSW,192,0.0,0.0,78,0.00,,,0.00,46,weatherlink.com 1.10,2013-07-08 23:35:00,
2013-07-08 19:50:00,80.7,74.0,29.93,SSW,192,0.0,1.0,80,0.00,,,0.00,9,weatherlink.com 1.10,2013-07-08 23:50:00,
2013-07-08 20:35:00,77.4,73.0,29.95,South,180,0.0,0.0,87,0.00,,,0.00,0,weatherlink.com 1.10,2013-07-09 00:35:00,
2013-07-08 21:05:00,76.0,73.0,29.96,South,180,0.0,0.0,89,0.00,,,0.00,0,weatherlink.com 1.10,2013-07-09 01:05:00,
2013-07-08 21:20:00,75.4,72.0,29.97,South,180,0.0,1.0,90,0.00,,,0.00,0,weatherlink.com 1.10,2013-07-09 01:20:00,
2013-07-08 21:35:00,74.7,72.0,29.97,South,180,0.0,0.0,90,0.00,,,0.00,0,weatherlink.com 1.10,2013-07-09 01:35:00,
2013-07-08 21:51:00,74.0,71.0,29.98,South,180,0.0,0.0,91,0.00,,,0.00,0,weatherlink.com 1.10,2013-07-09 01:51:00,
2013-07-08 22:05:00,73.7,71.0,29.98,WNW,301,0.0,2.0,92,0.00,,,0.00,0,weatherlink.com 1.10,2013-07-09 02:05:00,
2013-07-08 22:35:00,73.3,71.0,29.98,SSE,165,0.0,1.0,92,0.00,,,0.00,0,weatherlink.com 1.10,2013-07-09 02:35:00,
2013-07-08 23:20:00,73.0,71.0,29.99,WSW,241,0.0,1.0,92,0.00,,,0.00,0,weatherlink.com 1.10,2013-07-09 03:20:00,
2013-07-08 23:50:00,71.9,70.0,30.00,WSW,239,0.0,5.0,94,0.00,,,0.00,0,weatherlink.com 1.10,2013-07-09 03:50:00,